sensor_id;sensor_type;location;lat;lon;timestamp;P1;durP1;ratioP1;P2;durP2;ratioP2
58581;SDS011;44361;51.476;5.700;2023-11-19T00:00:15;14.50;;;8.35;;
58581;SDS011;44361;51.476;5.700;2023-11-19T00:02:41;14.15;;;8.02;;
58581;SDS011;44361;51.476;5.700;2023-11-19T00:05:07;16.58;;;8.70;;
58581;SDS011;44361;51.476;5.700;2023-11-19T00:07:34;15.23;;;8.10;;
58581;SDS011;44361;51.476;5.700;2023-11-19T00:10:01;17.02;;;7.57;;
58581;SDS011;44361;51.476;5.700;2023-11-19T00:12:31;16.77;;;7.40;;
58581;SDS011;44361;51.476;5.700;2023-11-19T00:14:57;17.13;;;7.93;;
58581;SDS011;44361;51.476;5.700;2023-11-19T00:17:23;17.88;;;7.30;;
58581;SDS011;44361;51.476;5.700;2023-11-19T00:19:48;15.32;;;7.60;;
58581;SDS011;44361;51.476;5.700;2023-11-19T00:22:16;13.02;;;7.47;;
58581;SDS011;44361;51.476;5.700;2023-11-19T00:24:42;13.48;;;6.70;;
58581;SDS011;44361;51.476;5.700;2023-11-19T00:27:07;13.75;;;5.80;;
58581;SDS011;44361;51.476;5.700;2023-11-19T00:29:33;11.68;;;5.38;;
58581;SDS011;44361;51.476;5.700;2023-11-19T00:31:58;10.88;;;5.18;;
58581;SDS011;44361;51.476;5.700;2023-11-19T00:34:24;12.27;;;5.50;;
58581;SDS011;44361;51.476;5.700;2023-11-19T00:36:49;13.95;;;5.07;;
58581;SDS011;44361;51.476;5.700;2023-11-19T00:39:15;12.32;;;4.93;;
58581;SDS011;44361;51.476;5.700;2023-11-19T00:41:41;8.85;;;4.70;;
58581;SDS011;44361;51.476;5.700;2023-11-19T00:44:06;10.25;;;4.45;;
58581;SDS011;44361;51.476;5.700;2023-11-19T00:46:32;9.00;;;4.13;;
58581;SDS011;44361;51.476;5.700;2023-11-19T00:48:57;7.60;;;4.20;;
58581;SDS011;44361;51.476;5.700;2023-11-19T00:51:24;10.77;;;3.90;;
58581;SDS011;44361;51.476;5.700;2023-11-19T00:53:51;7.00;;;3.22;;
58581;SDS011;44361;51.476;5.700;2023-11-19T00:56:18;7.47;;;4.35;;
58581;SDS011;44361;51.476;5.700;2023-11-19T00:58:44;9.10;;;3.38;;
58581;SDS011;44361;51.476;5.700;2023-11-19T01:01:12;13.10;;;4.45;;
58581;SDS011;44361;51.476;5.700;2023-11-19T01:03:38;13.05;;;3.38;;
58581;SDS011;44361;51.476;5.700;2023-11-19T01:06:04;11.18;;;3.80;;
58581;SDS011;44361;51.476;5.700;2023-11-19T01:08:30;7.47;;;3.42;;
58581;SDS011;44361;51.476;5.700;2023-11-19T01:10:55;11.38;;;3.92;;
58581;SDS011;44361;51.476;5.700;2023-11-19T01:13:21;11.40;;;3.72;;
58581;SDS011;44361;51.476;5.700;2023-11-19T01:15:47;8.68;;;2.67;;
58581;SDS011;44361;51.476;5.700;2023-11-19T01:18:13;12.40;;;3.45;;
58581;SDS011;44361;51.476;5.700;2023-11-19T01:20:38;15.90;;;3.67;;
58581;SDS011;44361;51.476;5.700;2023-11-19T01:23:04;8.38;;;3.45;;
58581;SDS011;44361;51.476;5.700;2023-11-19T01:25:30;12.93;;;3.53;;
58581;SDS011;44361;51.476;5.700;2023-11-19T01:27:55;17.58;;;3.30;;
58581;SDS011;44361;51.476;5.700;2023-11-19T01:30:23;11.02;;;3.47;;
58581;SDS011;44361;51.476;5.700;2023-11-19T01:32:49;13.98;;;3.60;;
58581;SDS011;44361;51.476;5.700;2023-11-19T01:35:15;11.85;;;3.40;;
58581;SDS011;44361;51.476;5.700;2023-11-19T01:37:40;16.58;;;3.58;;
58581;SDS011;44361;51.476;5.700;2023-11-19T01:40:06;18.92;;;3.72;;
58581;SDS011;44361;51.476;5.700;2023-11-19T01:42:39;14.27;;;3.55;;
58581;SDS011;44361;51.476;5.700;2023-11-19T01:45:06;17.58;;;4.03;;
58581;SDS011;44361;51.476;5.700;2023-11-19T01:47:33;25.30;;;3.72;;
58581;SDS011;44361;51.476;5.700;2023-11-19T01:49:59;20.77;;;3.17;;
58581;SDS011;44361;51.476;5.700;2023-11-19T01:52:26;13.98;;;3.40;;
58581;SDS011;44361;51.476;5.700;2023-11-19T01:54:52;13.23;;;2.92;;
58581;SDS011;44361;51.476;5.700;2023-11-19T01:57:19;15.88;;;3.63;;
58581;SDS011;44361;51.476;5.700;2023-11-19T01:59:47;17.63;;;2.60;;
58581;SDS011;44361;51.476;5.700;2023-11-19T02:02:15;15.38;;;3.22;;
58581;SDS011;44361;51.476;5.700;2023-11-19T02:04:45;11.98;;;3.40;;
58581;SDS011;44361;51.476;5.700;2023-11-19T02:07:13;11.85;;;3.08;;
58581;SDS011;44361;51.476;5.700;2023-11-19T02:09:41;15.52;;;3.20;;
58581;SDS011;44361;51.476;5.700;2023-11-19T02:12:07;12.95;;;3.20;;
58581;SDS011;44361;51.476;5.700;2023-11-19T02:14:34;19.92;;;3.05;;
58581;SDS011;44361;51.476;5.700;2023-11-19T02:17:00;15.55;;;2.80;;
58581;SDS011;44361;51.476;5.700;2023-11-19T02:19:25;10.25;;;2.80;;
58581;SDS011;44361;51.476;5.700;2023-11-19T02:21:51;15.23;;;3.17;;
58581;SDS011;44361;51.476;5.700;2023-11-19T02:24:16;15.50;;;3.10;;
58581;SDS011;44361;51.476;5.700;2023-11-19T02:26:56;13.85;;;3.45;;
58581;SDS011;44361;51.476;5.700;2023-11-19T02:29:27;14.80;;;3.38;;
58581;SDS011;44361;51.476;5.700;2023-11-19T02:31:53;15.23;;;3.20;;
58581;SDS011;44361;51.476;5.700;2023-11-19T02:34:20;14.75;;;2.45;;
58581;SDS011;44361;51.476;5.700;2023-11-19T02:36:46;13.95;;;2.40;;
58581;SDS011;44361;51.476;5.700;2023-11-19T02:39:12;10.77;;;2.45;;
58581;SDS011;44361;51.476;5.700;2023-11-19T02:41:38;22.95;;;3.38;;
58581;SDS011;44361;51.476;5.700;2023-11-19T02:44:05;14.43;;;3.33;;
58581;SDS011;44361;51.476;5.700;2023-11-19T02:46:31;19.58;;;3.65;;
58581;SDS011;44361;51.476;5.700;2023-11-19T02:48:57;24.13;;;3.85;;
58581;SDS011;44361;51.476;5.700;2023-11-19T02:51:22;23.67;;;3.85;;
58581;SDS011;44361;51.476;5.700;2023-11-19T02:53:48;19.45;;;3.95;;
58581;SDS011;44361;51.476;5.700;2023-11-19T02:56:14;31.88;;;3.80;;
58581;SDS011;44361;51.476;5.700;2023-11-19T02:58:50;21.17;;;4.15;;
58581;SDS011;44361;51.476;5.700;2023-11-19T03:01:23;24.17;;;4.18;;
58581;SDS011;44361;51.476;5.700;2023-11-19T03:03:54;32.40;;;4.80;;
58581;SDS011;44361;51.476;5.700;2023-11-19T03:06:23;30.98;;;4.53;;
58581;SDS011;44361;51.476;5.700;2023-11-19T03:08:49;28.42;;;3.85;;
58581;SDS011;44361;51.476;5.700;2023-11-19T03:11:15;20.88;;;4.13;;
58581;SDS011;44361;51.476;5.700;2023-11-19T03:13:41;33.25;;;4.40;;
58581;SDS011;44361;51.476;5.700;2023-11-19T03:16:07;30.05;;;3.53;;
58581;SDS011;44361;51.476;5.700;2023-11-19T03:18:33;29.88;;;3.92;;
58581;SDS011;44361;51.476;5.700;2023-11-19T03:20:58;27.90;;;3.85;;
58581;SDS011;44361;51.476;5.700;2023-11-19T03:23:24;28.30;;;4.55;;
58581;SDS011;44361;51.476;5.700;2023-11-19T03:25:52;25.90;;;4.45;;
58581;SDS011;44361;51.476;5.700;2023-11-19T03:28:18;32.03;;;4.45;;
58581;SDS011;44361;51.476;5.700;2023-11-19T03:30:44;30.52;;;4.13;;
58581;SDS011;44361;51.476;5.700;2023-11-19T03:33:09;33.88;;;4.60;;
58581;SDS011;44361;51.476;5.700;2023-11-19T03:35:35;30.35;;;4.85;;
58581;SDS011;44361;51.476;5.700;2023-11-19T03:38:01;30.42;;;4.78;;
58581;SDS011;44361;51.476;5.700;2023-11-19T03:40:26;29.45;;;3.58;;
58581;SDS011;44361;51.476;5.700;2023-11-19T03:42:52;25.25;;;3.50;;
58581;SDS011;44361;51.476;5.700;2023-11-19T03:45:18;29.48;;;5.30;;
58581;SDS011;44361;51.476;5.700;2023-11-19T03:47:43;30.10;;;4.40;;
58581;SDS011;44361;51.476;5.700;2023-11-19T03:50:09;28.20;;;4.03;;
58581;SDS011;44361;51.476;5.700;2023-11-19T03:52:35;35.55;;;4.28;;
58581;SDS011;44361;51.476;5.700;2023-11-19T03:55:01;27.95;;;4.20;;
58581;SDS011;44361;51.476;5.700;2023-11-19T03:57:28;32.03;;;4.75;;
58581;SDS011;44361;51.476;5.700;2023-11-19T03:59:54;33.80;;;5.03;;
58581;SDS011;44361;51.476;5.700;2023-11-19T04:02:20;34.92;;;4.03;;
58581;SDS011;44361;51.476;5.700;2023-11-19T04:04:46;45.70;;;6.20;;
58581;SDS011;44361;51.476;5.700;2023-11-19T04:07:13;32.72;;;4.80;;
58581;SDS011;44361;51.476;5.700;2023-11-19T04:09:38;25.98;;;4.53;;
58581;SDS011;44361;51.476;5.700;2023-11-19T04:12:04;44.45;;;4.82;;
58581;SDS011;44361;51.476;5.700;2023-11-19T04:14:30;37.78;;;4.72;;
58581;SDS011;44361;51.476;5.700;2023-11-19T04:16:55;24.98;;;4.15;;
58581;SDS011;44361;51.476;5.700;2023-11-19T04:19:21;33.55;;;4.65;;
58581;SDS011;44361;51.476;5.700;2023-11-19T04:21:47;30.52;;;4.63;;
58581;SDS011;44361;51.476;5.700;2023-11-19T04:24:13;35.15;;;4.88;;
58581;SDS011;44361;51.476;5.700;2023-11-19T04:26:42;38.83;;;4.50;;
58581;SDS011;44361;51.476;5.700;2023-11-19T04:29:10;38.35;;;5.13;;
58581;SDS011;44361;51.476;5.700;2023-11-19T04:31:37;48.67;;;5.93;;
58581;SDS011;44361;51.476;5.700;2023-11-19T04:34:03;45.63;;;5.25;;
58581;SDS011;44361;51.476;5.700;2023-11-19T04:36:28;25.77;;;4.25;;
58581;SDS011;44361;51.476;5.700;2023-11-19T04:38:54;34.75;;;5.18;;
58581;SDS011;44361;51.476;5.700;2023-11-19T04:41:20;28.95;;;3.90;;
58581;SDS011;44361;51.476;5.700;2023-11-19T04:43:46;37.67;;;4.68;;
58581;SDS011;44361;51.476;5.700;2023-11-19T04:46:11;36.75;;;5.57;;
58581;SDS011;44361;51.476;5.700;2023-11-19T04:48:37;39.95;;;4.78;;
58581;SDS011;44361;51.476;5.700;2023-11-19T04:51:04;32.35;;;4.65;;
58581;SDS011;44361;51.476;5.700;2023-11-19T04:53:30;36.55;;;4.38;;
58581;SDS011;44361;51.476;5.700;2023-11-19T04:55:56;36.85;;;4.75;;
58581;SDS011;44361;51.476;5.700;2023-11-19T04:58:21;38.47;;;4.55;;
58581;SDS011;44361;51.476;5.700;2023-11-19T05:00:47;41.35;;;5.03;;
58581;SDS011;44361;51.476;5.700;2023-11-19T05:03:13;46.72;;;5.30;;
58581;SDS011;44361;51.476;5.700;2023-11-19T05:05:38;34.05;;;5.18;;
58581;SDS011;44361;51.476;5.700;2023-11-19T05:08:04;41.92;;;4.28;;
58581;SDS011;44361;51.476;5.700;2023-11-19T05:10:30;38.03;;;4.60;;
58581;SDS011;44361;51.476;5.700;2023-11-19T05:12:55;27.08;;;4.63;;
58581;SDS011;44361;51.476;5.700;2023-11-19T05:15:21;30.88;;;4.53;;
58581;SDS011;44361;51.476;5.700;2023-11-19T05:17:47;27.55;;;4.35;;
58581;SDS011;44361;51.476;5.700;2023-11-19T05:20:13;26.83;;;4.15;;
58581;SDS011;44361;51.476;5.700;2023-11-19T05:22:39;38.17;;;4.35;;
58581;SDS011;44361;51.476;5.700;2023-11-19T05:25:05;32.72;;;4.40;;
58581;SDS011;44361;51.476;5.700;2023-11-19T05:27:32;44.15;;;5.70;;
58581;SDS011;44361;51.476;5.700;2023-11-19T05:29:57;24.15;;;3.90;;
58581;SDS011;44361;51.476;5.700;2023-11-19T05:32:23;31.15;;;4.40;;
58581;SDS011;44361;51.476;5.700;2023-11-19T05:34:48;28.50;;;4.90;;
58581;SDS011;44361;51.476;5.700;2023-11-19T05:37:14;32.47;;;4.57;;
58581;SDS011;44361;51.476;5.700;2023-11-19T05:39:39;32.00;;;4.32;;
58581;SDS011;44361;51.476;5.700;2023-11-19T05:42:05;32.38;;;5.43;;
58581;SDS011;44361;51.476;5.700;2023-11-19T05:44:30;37.90;;;4.90;;
58581;SDS011;44361;51.476;5.700;2023-11-19T05:46:56;32.15;;;4.75;;
58581;SDS011;44361;51.476;5.700;2023-11-19T05:49:22;40.53;;;5.75;;
58581;SDS011;44361;51.476;5.700;2023-11-19T05:51:47;39.13;;;6.35;;
58581;SDS011;44361;51.476;5.700;2023-11-19T05:54:13;31.55;;;4.60;;
58581;SDS011;44361;51.476;5.700;2023-11-19T05:56:38;40.90;;;5.72;;
58581;SDS011;44361;51.476;5.700;2023-11-19T05:59:04;34.08;;;5.05;;
58581;SDS011;44361;51.476;5.700;2023-11-19T06:01:33;36.78;;;4.63;;
58581;SDS011;44361;51.476;5.700;2023-11-19T06:03:59;31.48;;;4.80;;
58581;SDS011;44361;51.476;5.700;2023-11-19T06:06:26;29.35;;;5.00;;
58581;SDS011;44361;51.476;5.700;2023-11-19T06:08:52;36.65;;;5.60;;
58581;SDS011;44361;51.476;5.700;2023-11-19T06:11:17;37.90;;;4.93;;
58581;SDS011;44361;51.476;5.700;2023-11-19T06:13:45;30.80;;;4.75;;
58581;SDS011;44361;51.476;5.700;2023-11-19T06:16:11;34.92;;;4.68;;
58581;SDS011;44361;51.476;5.700;2023-11-19T06:18:37;46.95;;;4.75;;
58581;SDS011;44361;51.476;5.700;2023-11-19T06:21:02;34.17;;;4.63;;
58581;SDS011;44361;51.476;5.700;2023-11-19T06:23:28;32.15;;;5.10;;
58581;SDS011;44361;51.476;5.700;2023-11-19T06:25:54;35.15;;;4.88;;
58581;SDS011;44361;51.476;5.700;2023-11-19T06:28:19;33.45;;;4.32;;
58581;SDS011;44361;51.476;5.700;2023-11-19T06:30:45;32.13;;;4.97;;
58581;SDS011;44361;51.476;5.700;2023-11-19T06:33:13;37.53;;;5.43;;
58581;SDS011;44361;51.476;5.700;2023-11-19T06:35:39;35.20;;;5.82;;
58581;SDS011;44361;51.476;5.700;2023-11-19T06:38:05;32.17;;;4.13;;
58581;SDS011;44361;51.476;5.700;2023-11-19T06:40:31;27.15;;;4.47;;
58581;SDS011;44361;51.476;5.700;2023-11-19T06:42:58;28.92;;;4.35;;
58581;SDS011;44361;51.476;5.700;2023-11-19T06:45:23;39.22;;;4.88;;
58581;SDS011;44361;51.476;5.700;2023-11-19T06:47:49;25.90;;;4.32;;
58581;SDS011;44361;51.476;5.700;2023-11-19T06:50:15;43.28;;;4.70;;
58581;SDS011;44361;51.476;5.700;2023-11-19T06:52:41;37.97;;;4.53;;
58581;SDS011;44361;51.476;5.700;2023-11-19T06:55:06;43.47;;;4.63;;
58581;SDS011;44361;51.476;5.700;2023-11-19T06:57:33;38.65;;;5.65;;
58581;SDS011;44361;51.476;5.700;2023-11-19T06:59:58;38.88;;;4.55;;
58581;SDS011;44361;51.476;5.700;2023-11-19T07:02:24;33.65;;;4.88;;
58581;SDS011;44361;51.476;5.700;2023-11-19T07:04:50;36.17;;;5.47;;
58581;SDS011;44361;51.476;5.700;2023-11-19T07:07:16;31.42;;;5.00;;
58581;SDS011;44361;51.476;5.700;2023-11-19T07:09:42;52.42;;;6.65;;
58581;SDS011;44361;51.476;5.700;2023-11-19T07:12:07;32.63;;;4.85;;
58581;SDS011;44361;51.476;5.700;2023-11-19T07:14:33;29.88;;;3.80;;
58581;SDS011;44361;51.476;5.700;2023-11-19T07:16:59;34.22;;;4.53;;
58581;SDS011;44361;51.476;5.700;2023-11-19T07:19:25;37.88;;;3.85;;
58581;SDS011;44361;51.476;5.700;2023-11-19T07:21:51;45.03;;;5.22;;
58581;SDS011;44361;51.476;5.700;2023-11-19T07:24:19;34.00;;;5.03;;
58581;SDS011;44361;51.476;5.700;2023-11-19T07:26:46;39.17;;;5.07;;
58581;SDS011;44361;51.476;5.700;2023-11-19T07:29:12;42.42;;;4.80;;
58581;SDS011;44361;51.476;5.700;2023-11-19T07:31:38;32.67;;;5.20;;
58581;SDS011;44361;51.476;5.700;2023-11-19T07:34:04;46.70;;;5.55;;
58581;SDS011;44361;51.476;5.700;2023-11-19T07:36:31;28.20;;;3.75;;
58581;SDS011;44361;51.476;5.700;2023-11-19T07:38:57;36.92;;;5.38;;
58581;SDS011;44361;51.476;5.700;2023-11-19T07:41:23;33.83;;;4.03;;
58581;SDS011;44361;51.476;5.700;2023-11-19T07:43:50;34.45;;;4.47;;
58581;SDS011;44361;51.476;5.700;2023-11-19T07:46:16;49.45;;;4.50;;
58581;SDS011;44361;51.476;5.700;2023-11-19T07:48:44;41.25;;;4.60;;
58581;SDS011;44361;51.476;5.700;2023-11-19T07:51:12;36.25;;;5.15;;
58581;SDS011;44361;51.476;5.700;2023-11-19T07:53:38;31.30;;;5.03;;
58581;SDS011;44361;51.476;5.700;2023-11-19T07:56:04;45.35;;;5.25;;
58581;SDS011;44361;51.476;5.700;2023-11-19T07:58:30;53.25;;;6.50;;
58581;SDS011;44361;51.476;5.700;2023-11-19T08:00:56;41.45;;;5.60;;
58581;SDS011;44361;51.476;5.700;2023-11-19T08:03:21;34.55;;;4.15;;
58581;SDS011;44361;51.476;5.700;2023-11-19T08:05:47;30.25;;;4.28;;
58581;SDS011;44361;51.476;5.700;2023-11-19T08:08:13;39.42;;;4.95;;
58581;SDS011;44361;51.476;5.700;2023-11-19T08:10:39;45.00;;;5.78;;
58581;SDS011;44361;51.476;5.700;2023-11-19T08:13:05;42.28;;;4.75;;
58581;SDS011;44361;51.476;5.700;2023-11-19T08:15:31;29.10;;;4.43;;
58581;SDS011;44361;51.476;5.700;2023-11-19T08:17:57;30.73;;;5.63;;
58581;SDS011;44361;51.476;5.700;2023-11-19T08:20:22;33.67;;;5.03;;
58581;SDS011;44361;51.476;5.700;2023-11-19T08:22:48;44.35;;;4.82;;
58581;SDS011;44361;51.476;5.700;2023-11-19T08:25:14;53.75;;;5.47;;
58581;SDS011;44361;51.476;5.700;2023-11-19T08:27:40;31.80;;;4.72;;
58581;SDS011;44361;51.476;5.700;2023-11-19T08:30:05;29.08;;;4.15;;
58581;SDS011;44361;51.476;5.700;2023-11-19T08:32:31;38.45;;;5.13;;
58581;SDS011;44361;51.476;5.700;2023-11-19T08:34:58;47.63;;;5.25;;
58581;SDS011;44361;51.476;5.700;2023-11-19T08:37:23;31.55;;;4.63;;
58581;SDS011;44361;51.476;5.700;2023-11-19T08:39:49;27.85;;;4.55;;
58581;SDS011;44361;51.476;5.700;2023-11-19T08:42:18;41.97;;;5.43;;
58581;SDS011;44361;51.476;5.700;2023-11-19T08:44:48;27.13;;;3.55;;
58581;SDS011;44361;51.476;5.700;2023-11-19T08:47:15;39.35;;;5.55;;
58581;SDS011;44361;51.476;5.700;2023-11-19T08:49:42;39.50;;;4.65;;
58581;SDS011;44361;51.476;5.700;2023-11-19T08:52:09;31.98;;;4.03;;
58581;SDS011;44361;51.476;5.700;2023-11-19T08:54:35;43.78;;;5.28;;
58581;SDS011;44361;51.476;5.700;2023-11-19T08:57:01;36.63;;;5.47;;
58581;SDS011;44361;51.476;5.700;2023-11-19T08:59:28;38.15;;;4.55;;
58581;SDS011;44361;51.476;5.700;2023-11-19T09:01:54;29.63;;;4.68;;
58581;SDS011;44361;51.476;5.700;2023-11-19T09:04:19;26.33;;;4.07;;
58581;SDS011;44361;51.476;5.700;2023-11-19T09:06:47;43.15;;;5.25;;
58581;SDS011;44361;51.476;5.700;2023-11-19T09:09:13;31.02;;;5.25;;
58581;SDS011;44361;51.476;5.700;2023-11-19T09:11:39;43.72;;;5.10;;
58581;SDS011;44361;51.476;5.700;2023-11-19T09:14:05;37.15;;;5.07;;
58581;SDS011;44361;51.476;5.700;2023-11-19T09:16:31;35.83;;;4.68;;
58581;SDS011;44361;51.476;5.700;2023-11-19T09:18:57;28.92;;;4.15;;
58581;SDS011;44361;51.476;5.700;2023-11-19T09:21:24;27.35;;;4.05;;
58581;SDS011;44361;51.476;5.700;2023-11-19T09:23:54;31.10;;;5.00;;
58581;SDS011;44361;51.476;5.700;2023-11-19T09:26:20;34.17;;;5.05;;
58581;SDS011;44361;51.476;5.700;2023-11-19T09:28:46;35.28;;;4.72;;
58581;SDS011;44361;51.476;5.700;2023-11-19T09:31:14;40.92;;;5.32;;
58581;SDS011;44361;51.476;5.700;2023-11-19T09:33:41;28.20;;;4.20;;
58581;SDS011;44361;51.476;5.700;2023-11-19T09:36:06;35.13;;;4.80;;
58581;SDS011;44361;51.476;5.700;2023-11-19T09:38:32;30.88;;;4.35;;
58581;SDS011;44361;51.476;5.700;2023-11-19T09:40:58;34.15;;;4.32;;
58581;SDS011;44361;51.476;5.700;2023-11-19T09:43:27;30.67;;;4.00;;
58581;SDS011;44361;51.476;5.700;2023-11-19T09:45:53;37.55;;;4.45;;
58581;SDS011;44361;51.476;5.700;2023-11-19T09:48:21;34.17;;;5.35;;
58581;SDS011;44361;51.476;5.700;2023-11-19T09:50:49;32.83;;;4.65;;
58581;SDS011;44361;51.476;5.700;2023-11-19T09:53:16;30.45;;;4.78;;
58581;SDS011;44361;51.476;5.700;2023-11-19T09:55:42;28.50;;;4.45;;
58581;SDS011;44361;51.476;5.700;2023-11-19T09:58:08;37.35;;;4.55;;
58581;SDS011;44361;51.476;5.700;2023-11-19T10:00:36;31.40;;;4.53;;
58581;SDS011;44361;51.476;5.700;2023-11-19T10:03:02;27.40;;;3.72;;
58581;SDS011;44361;51.476;5.700;2023-11-19T10:05:30;40.80;;;5.28;;
58581;SDS011;44361;51.476;5.700;2023-11-19T10:07:56;28.75;;;4.30;;
58581;SDS011;44361;51.476;5.700;2023-11-19T10:10:22;28.92;;;3.95;;
58581;SDS011;44361;51.476;5.700;2023-11-19T10:12:50;24.20;;;4.88;;
58581;SDS011;44361;51.476;5.700;2023-11-19T10:15:20;31.83;;;3.80;;
58581;SDS011;44361;51.476;5.700;2023-11-19T10:17:50;33.10;;;4.85;;
58581;SDS011;44361;51.476;5.700;2023-11-19T10:20:16;30.23;;;4.45;;
58581;SDS011;44361;51.476;5.700;2023-11-19T10:22:41;37.20;;;4.05;;
58581;SDS011;44361;51.476;5.700;2023-11-19T10:25:26;38.13;;;6.55;;
58581;SDS011;44361;51.476;5.700;2023-11-19T10:27:53;32.80;;;6.25;;
58581;SDS011;44361;51.476;5.700;2023-11-19T10:30:30;32.55;;;6.97;;
58581;SDS011;44361;51.476;5.700;2023-11-19T10:33:05;35.58;;;7.47;;
58581;SDS011;44361;51.476;5.700;2023-11-19T10:35:54;31.55;;;5.53;;
58581;SDS011;44361;51.476;5.700;2023-11-19T10:38:23;27.55;;;6.35;;
58581;SDS011;44361;51.476;5.700;2023-11-19T10:40:50;31.25;;;7.15;;
58581;SDS011;44361;51.476;5.700;2023-11-19T10:43:17;24.90;;;4.45;;
58581;SDS011;44361;51.476;5.700;2023-11-19T10:45:43;30.15;;;5.40;;
58581;SDS011;44361;51.476;5.700;2023-11-19T10:48:09;31.00;;;4.57;;
58581;SDS011;44361;51.476;5.700;2023-11-19T10:50:38;27.45;;;4.15;;
58581;SDS011;44361;51.476;5.700;2023-11-19T10:53:05;32.25;;;4.50;;
58581;SDS011;44361;51.476;5.700;2023-11-19T10:55:34;29.38;;;4.20;;
58581;SDS011;44361;51.476;5.700;2023-11-19T10:58:04;30.58;;;5.13;;
58581;SDS011;44361;51.476;5.700;2023-11-19T11:00:38;28.50;;;5.13;;
58581;SDS011;44361;51.476;5.700;2023-11-19T11:03:11;30.00;;;4.22;;
58581;SDS011;44361;51.476;5.700;2023-11-19T11:05:48;23.25;;;4.45;;
58581;SDS011;44361;51.476;5.700;2023-11-19T11:08:15;28.00;;;4.30;;
58581;SDS011;44361;51.476;5.700;2023-11-19T11:10:45;28.08;;;4.60;;
58581;SDS011;44361;51.476;5.700;2023-11-19T11:13:13;30.48;;;3.80;;
58581;SDS011;44361;51.476;5.700;2023-11-19T11:15:39;23.30;;;3.72;;
58581;SDS011;44361;51.476;5.700;2023-11-19T11:18:08;25.40;;;4.35;;
58581;SDS011;44361;51.476;5.700;2023-11-19T11:20:34;24.70;;;3.40;;
58581;SDS011;44361;51.476;5.700;2023-11-19T11:28:42;20.73;;;3.72;;
58581;SDS011;44361;51.476;5.700;2023-11-19T11:36:31;21.80;;;3.83;;
58581;SDS011;44361;51.476;5.700;2023-11-19T11:39:06;20.13;;;4.10;;
58581;SDS011;44361;51.476;5.700;2023-11-19T11:41:32;27.95;;;4.22;;
58581;SDS011;44361;51.476;5.700;2023-11-19T11:43:58;25.55;;;3.13;;
58581;SDS011;44361;51.476;5.700;2023-11-19T11:49:02;24.95;;;3.70;;
58581;SDS011;44361;51.476;5.700;2023-11-19T11:54:09;23.98;;;3.60;;
58581;SDS011;44361;51.476;5.700;2023-11-19T11:56:39;22.38;;;3.25;;
58581;SDS011;44361;51.476;5.700;2023-11-19T11:59:08;22.52;;;2.80;;
58581;SDS011;44361;51.476;5.700;2023-11-19T12:01:58;15.50;;;2.83;;
58581;SDS011;44361;51.476;5.700;2023-11-19T12:04:26;17.27;;;3.63;;
58581;SDS011;44361;51.476;5.700;2023-11-19T12:07:03;21.20;;;3.13;;
58581;SDS011;44361;51.476;5.700;2023-11-19T12:09:33;24.35;;;3.25;;
58581;SDS011;44361;51.476;5.700;2023-11-19T12:20:05;25.35;;;3.65;;
58581;SDS011;44361;51.476;5.700;2023-11-19T12:22:34;17.15;;;3.13;;
58581;SDS011;44361;51.476;5.700;2023-11-19T12:25:04;22.35;;;3.83;;
58581;SDS011;44361;51.476;5.700;2023-11-19T12:27:31;19.77;;;3.13;;
58581;SDS011;44361;51.476;5.700;2023-11-19T12:29:59;23.55;;;3.65;;
58581;SDS011;44361;51.476;5.700;2023-11-19T12:32:25;21.63;;;3.70;;
58581;SDS011;44361;51.476;5.700;2023-11-19T12:34:50;24.67;;;3.55;;
58581;SDS011;44361;51.476;5.700;2023-11-19T12:37:16;24.17;;;3.33;;
58581;SDS011;44361;51.476;5.700;2023-11-19T12:39:41;17.35;;;3.13;;
58581;SDS011;44361;51.476;5.700;2023-11-19T12:42:08;23.67;;;3.92;;
58581;SDS011;44361;51.476;5.700;2023-11-19T12:44:34;21.17;;;3.53;;
58581;SDS011;44361;51.476;5.700;2023-11-19T12:47:03;29.45;;;5.18;;
58581;SDS011;44361;51.476;5.700;2023-11-19T12:49:31;21.65;;;3.55;;
58581;SDS011;44361;51.476;5.700;2023-11-19T12:51:58;21.83;;;4.07;;
58581;SDS011;44361;51.476;5.700;2023-11-19T12:54:34;30.17;;;3.90;;
58581;SDS011;44361;51.476;5.700;2023-11-19T12:57:03;26.35;;;3.85;;
58581;SDS011;44361;51.476;5.700;2023-11-19T12:59:29;27.58;;;3.22;;
58581;SDS011;44361;51.476;5.700;2023-11-19T13:01:56;19.55;;;3.80;;
58581;SDS011;44361;51.476;5.700;2023-11-19T13:04:22;22.13;;;3.65;;
58581;SDS011;44361;51.476;5.700;2023-11-19T13:06:52;20.75;;;3.25;;
58581;SDS011;44361;51.476;5.700;2023-11-19T13:09:27;28.05;;;4.85;;
58581;SDS011;44361;51.476;5.700;2023-11-19T13:11:54;21.60;;;3.63;;
58581;SDS011;44361;51.476;5.700;2023-11-19T13:14:21;21.00;;;4.28;;
58581;SDS011;44361;51.476;5.700;2023-11-19T13:16:47;26.42;;;3.75;;
58581;SDS011;44361;51.476;5.700;2023-11-19T13:19:13;21.45;;;3.40;;
58581;SDS011;44361;51.476;5.700;2023-11-19T13:21:43;21.08;;;3.55;;
58581;SDS011;44361;51.476;5.700;2023-11-19T13:24:11;27.42;;;3.13;;
58581;SDS011;44361;51.476;5.700;2023-11-19T13:26:37;22.45;;;3.50;;
58581;SDS011;44361;51.476;5.700;2023-11-19T13:29:03;25.83;;;3.58;;
58581;SDS011;44361;51.476;5.700;2023-11-19T13:31:29;23.42;;;4.20;;
58581;SDS011;44361;51.476;5.700;2023-11-19T13:33:55;25.98;;;3.60;;
58581;SDS011;44361;51.476;5.700;2023-11-19T13:36:21;23.25;;;4.88;;
58581;SDS011;44361;51.476;5.700;2023-11-19T13:38:47;23.58;;;3.97;;
58581;SDS011;44361;51.476;5.700;2023-11-19T13:41:12;23.77;;;3.65;;
58581;SDS011;44361;51.476;5.700;2023-11-19T13:43:38;23.88;;;3.13;;
58581;SDS011;44361;51.476;5.700;2023-11-19T13:46:04;23.27;;;4.60;;
58581;SDS011;44361;51.476;5.700;2023-11-19T13:48:30;25.02;;;3.30;;
58581;SDS011;44361;51.476;5.700;2023-11-19T13:50:56;24.25;;;3.60;;
58581;SDS011;44361;51.476;5.700;2023-11-19T13:53:22;22.55;;;3.85;;
58581;SDS011;44361;51.476;5.700;2023-11-19T13:55:50;30.98;;;4.30;;
58581;SDS011;44361;51.476;5.700;2023-11-19T13:58:16;27.33;;;4.57;;
58581;SDS011;44361;51.476;5.700;2023-11-19T14:00:42;18.63;;;2.72;;
58581;SDS011;44361;51.476;5.700;2023-11-19T14:03:08;26.42;;;3.10;;
58581;SDS011;44361;51.476;5.700;2023-11-19T14:05:36;23.20;;;3.88;;
58581;SDS011;44361;51.476;5.700;2023-11-19T14:08:02;25.50;;;3.78;;
58581;SDS011;44361;51.476;5.700;2023-11-19T14:10:28;24.08;;;4.45;;
58581;SDS011;44361;51.476;5.700;2023-11-19T14:12:54;22.08;;;3.15;;
58581;SDS011;44361;51.476;5.700;2023-11-19T14:15:19;23.83;;;3.15;;
58581;SDS011;44361;51.476;5.700;2023-11-19T14:17:45;23.63;;;3.50;;
58581;SDS011;44361;51.476;5.700;2023-11-19T14:20:10;22.50;;;4.07;;
58581;SDS011;44361;51.476;5.700;2023-11-19T14:22:40;15.15;;;3.00;;
58581;SDS011;44361;51.476;5.700;2023-11-19T14:25:09;22.35;;;2.90;;
58581;SDS011;44361;51.476;5.700;2023-11-19T14:27:39;22.90;;;3.35;;
58581;SDS011;44361;51.476;5.700;2023-11-19T14:30:06;19.40;;;3.53;;
58581;SDS011;44361;51.476;5.700;2023-11-19T14:32:33;20.85;;;3.45;;
58581;SDS011;44361;51.476;5.700;2023-11-19T14:35:00;14.43;;;2.80;;
58581;SDS011;44361;51.476;5.700;2023-11-19T14:37:26;19.08;;;3.40;;
58581;SDS011;44361;51.476;5.700;2023-11-19T14:39:51;24.23;;;3.05;;
58581;SDS011;44361;51.476;5.700;2023-11-19T14:42:17;17.73;;;3.65;;
58581;SDS011;44361;51.476;5.700;2023-11-19T14:44:43;16.67;;;3.47;;
58581;SDS011;44361;51.476;5.700;2023-11-19T14:47:08;21.52;;;3.30;;
58581;SDS011;44361;51.476;5.700;2023-11-19T14:49:35;24.35;;;3.63;;
58581;SDS011;44361;51.476;5.700;2023-11-19T14:52:02;18.50;;;3.53;;
58581;SDS011;44361;51.476;5.700;2023-11-19T14:54:28;26.88;;;4.00;;
58581;SDS011;44361;51.476;5.700;2023-11-19T14:56:54;21.52;;;3.90;;